sensor_id;sensor_type;location;lat;lon;timestamp;temperature;humidity
26821;DHT22;37186;51.394;5.454;2023-05-10T00:02:58;16.80;77.80
26821;DHT22;37186;51.394;5.454;2023-05-10T00:05:59;16.80;78.00
26821;DHT22;37186;51.394;5.454;2023-05-10T00:09:00;16.80;77.80
26821;DHT22;37186;51.394;5.454;2023-05-10T00:12:00;16.80;77.80
26821;DHT22;37186;51.394;5.454;2023-05-10T00:15:01;16.80;77.90
26821;DHT22;37186;51.394;5.454;2023-05-10T00:18:03;16.80;77.80
26821;DHT22;37186;51.394;5.454;2023-05-10T00:21:03;16.80;77.90
26821;DHT22;37186;51.394;5.454;2023-05-10T00:24:04;16.80;77.90
26821;DHT22;37186;51.394;5.454;2023-05-10T00:27:05;16.80;77.90
26821;DHT22;37186;51.394;5.454;2023-05-10T00:30:06;16.80;77.90
26821;DHT22;37186;51.394;5.454;2023-05-10T00:33:07;16.80;77.90
26821;DHT22;37186;51.394;5.454;2023-05-10T00:36:07;16.80;78.10
26821;DHT22;37186;51.394;5.454;2023-05-10T00:39:08;16.80;77.90
26821;DHT22;37186;51.394;5.454;2023-05-10T00:42:09;16.80;77.90
26821;DHT22;37186;51.394;5.454;2023-05-10T00:45:09;16.80;77.90
26821;DHT22;37186;51.394;5.454;2023-05-10T00:48:10;16.80;77.90
26821;DHT22;37186;51.394;5.454;2023-05-10T00:51:10;16.80;77.90
26821;DHT22;37186;51.394;5.454;2023-05-10T00:54:12;16.80;78.00
26821;DHT22;37186;51.394;5.454;2023-05-10T00:57:14;16.80;77.90
26821;DHT22;37186;51.394;5.454;2023-05-10T01:00:15;16.80;77.90
26821;DHT22;37186;51.394;5.454;2023-05-10T01:03:19;16.80;78.10
26821;DHT22;37186;51.394;5.454;2023-05-10T01:06:19;16.80;77.90
26821;DHT22;37186;51.394;5.454;2023-05-10T01:09:21;16.80;77.90
26821;DHT22;37186;51.394;5.454;2023-05-10T01:12:21;16.80;78.20
26821;DHT22;37186;51.394;5.454;2023-05-10T01:15:22;16.80;77.90
26821;DHT22;37186;51.394;5.454;2023-05-10T01:18:23;16.80;78.70
26821;DHT22;37186;51.394;5.454;2023-05-10T01:21:36;16.80;78.00
26821;DHT22;37186;51.394;5.454;2023-05-10T01:42:32;16.70;77.90
26821;DHT22;37186;51.394;5.454;2023-05-10T01:45:50;16.80;78.00
26821;DHT22;37186;51.394;5.454;2023-05-10T01:48:55;16.70;77.90
26821;DHT22;37186;51.394;5.454;2023-05-10T01:52:04;16.70;77.90
26821;DHT22;37186;51.394;5.454;2023-05-10T01:55:09;16.70;77.90
26821;DHT22;37186;51.394;5.454;2023-05-10T01:58:19;16.70;78.00
26821;DHT22;37186;51.394;5.454;2023-05-10T02:01:21;16.70;78.00
26821;DHT22;37186;51.394;5.454;2023-05-10T02:04:23;16.70;77.90
26821;DHT22;37186;51.394;5.454;2023-05-10T02:07:26;16.70;78.00
26821;DHT22;37186;51.394;5.454;2023-05-10T02:10:29;16.70;77.90
26821;DHT22;37186;51.394;5.454;2023-05-10T02:13:32;16.70;77.90
26821;DHT22;37186;51.394;5.454;2023-05-10T02:16:35;16.70;77.90
26821;DHT22;37186;51.394;5.454;2023-05-10T02:19:38;16.60;77.80
26821;DHT22;37186;51.394;5.454;2023-05-10T02:22:40;16.60;77.90
26821;DHT22;37186;51.394;5.454;2023-05-10T02:25:43;16.60;78.00
26821;DHT22;37186;51.394;5.454;2023-05-10T02:28:44;16.60;77.90
26821;DHT22;37186;51.394;5.454;2023-05-10T02:31:46;16.60;77.90
26821;DHT22;37186;51.394;5.454;2023-05-10T02:34:47;16.60;78.10
26821;DHT22;37186;51.394;5.454;2023-05-10T02:37:52;16.60;78.00
26821;DHT22;37186;51.394;5.454;2023-05-10T02:40:54;16.60;78.10
26821;DHT22;37186;51.394;5.454;2023-05-10T02:43:59;16.60;78.10
26821;DHT22;37186;51.394;5.454;2023-05-10T02:47:01;16.60;78.80
26821;DHT22;37186;51.394;5.454;2023-05-10T02:50:02;16.50;78.10
26821;DHT22;37186;51.394;5.454;2023-05-10T02:53:10;16.50;78.20
26821;DHT22;37186;51.394;5.454;2023-05-10T02:56:23;16.50;78.10
26821;DHT22;37186;51.394;5.454;2023-05-10T02:59:25;16.50;78.10
26821;DHT22;37186;51.394;5.454;2023-05-10T03:02:26;16.50;78.10
26821;DHT22;37186;51.394;5.454;2023-05-10T03:05:27;16.50;78.10
26821;DHT22;37186;51.394;5.454;2023-05-10T03:08:28;16.50;78.10
26821;DHT22;37186;51.394;5.454;2023-05-10T03:15:19;16.50;78.20
26821;DHT22;37186;51.394;5.454;2023-05-10T03:18:44;16.50;78.20
26821;DHT22;37186;51.394;5.454;2023-05-10T03:21:51;16.40;78.10
26821;DHT22;37186;51.394;5.454;2023-05-10T03:24:56;16.40;78.10
26821;DHT22;37186;51.394;5.454;2023-05-10T03:27:58;16.40;78.20
26821;DHT22;37186;51.394;5.454;2023-05-10T03:31:00;16.40;78.10
26821;DHT22;37186;51.394;5.454;2023-05-10T03:34:00;16.40;78.10
26821;DHT22;37186;51.394;5.454;2023-05-10T03:37:01;16.40;78.20
26821;DHT22;37186;51.394;5.454;2023-05-10T03:40:03;16.40;78.20
26821;DHT22;37186;51.394;5.454;2023-05-10T03:43:03;16.40;78.30
26821;DHT22;37186;51.394;5.454;2023-05-10T03:46:05;16.40;78.30
26821;DHT22;37186;51.394;5.454;2023-05-10T03:49:05;16.30;78.30
26821;DHT22;37186;51.394;5.454;2023-05-10T03:52:06;16.30;78.50
26821;DHT22;37186;51.394;5.454;2023-05-10T03:55:07;16.30;78.30
26821;DHT22;37186;51.394;5.454;2023-05-10T03:58:10;16.30;78.50
26821;DHT22;37186;51.394;5.454;2023-05-10T04:01:11;16.30;78.50
26821;DHT22;37186;51.394;5.454;2023-05-10T04:04:11;16.30;78.40
26821;DHT22;37186;51.394;5.454;2023-05-10T04:07:12;16.30;78.80
26821;DHT22;37186;51.394;5.454;2023-05-10T04:10:13;16.30;78.40
26821;DHT22;37186;51.394;5.454;2023-05-10T04:13:13;16.30;78.40
26821;DHT22;37186;51.394;5.454;2023-05-10T04:16:14;16.30;79.00
26821;DHT22;37186;51.394;5.454;2023-05-10T04:19:14;16.20;78.70
26821;DHT22;37186;51.394;5.454;2023-05-10T04:22:15;16.20;78.30
26821;DHT22;37186;51.394;5.454;2023-05-10T04:25:16;16.20;78.50
26821;DHT22;37186;51.394;5.454;2023-05-10T04:28:17;16.20;78.40
26821;DHT22;37186;51.394;5.454;2023-05-10T04:31:17;16.20;78.40
26821;DHT22;37186;51.394;5.454;2023-05-10T04:34:18;16.20;79.50
26821;DHT22;37186;51.394;5.454;2023-05-10T04:37:20;16.20;78.50
26821;DHT22;37186;51.394;5.454;2023-05-10T04:40:21;16.20;79.30
26821;DHT22;37186;51.394;5.454;2023-05-10T04:43:22;16.20;78.40
26821;DHT22;37186;51.394;5.454;2023-05-10T04:46:22;16.20;78.50
26821;DHT22;37186;51.394;5.454;2023-05-10T04:49:23;16.20;78.50
26821;DHT22;37186;51.394;5.454;2023-05-10T04:52:23;16.20;78.60
26821;DHT22;37186;51.394;5.454;2023-05-10T04:55:24;16.20;78.50
26821;DHT22;37186;51.394;5.454;2023-05-10T04:58:25;16.20;78.50
26821;DHT22;37186;51.394;5.454;2023-05-10T05:01:26;16.20;78.70
26821;DHT22;37186;51.394;5.454;2023-05-10T05:04:26;16.20;78.60
26821;DHT22;37186;51.394;5.454;2023-05-10T05:07:27;16.20;78.60
26821;DHT22;37186;51.394;5.454;2023-05-10T05:10:27;16.20;78.90
26821;DHT22;37186;51.394;5.454;2023-05-10T05:13:28;16.10;78.90
26821;DHT22;37186;51.394;5.454;2023-05-10T05:16:30;16.10;78.70
26821;DHT22;37186;51.394;5.454;2023-05-10T05:19:32;16.10;78.90
26821;DHT22;37186;51.394;5.454;2023-05-10T05:22:32;16.10;78.70
26821;DHT22;37186;51.394;5.454;2023-05-10T05:25:33;16.10;79.00
26821;DHT22;37186;51.394;5.454;2023-05-10T05:28:33;16.10;78.80
26821;DHT22;37186;51.394;5.454;2023-05-10T05:31:37;16.00;79.00
26821;DHT22;37186;51.394;5.454;2023-05-10T05:34:37;16.00;78.90
26821;DHT22;37186;51.394;5.454;2023-05-10T05:37:38;16.00;78.90
26821;DHT22;37186;51.394;5.454;2023-05-10T05:40:39;16.00;78.80
26821;DHT22;37186;51.394;5.454;2023-05-10T05:43:39;16.00;78.90
26821;DHT22;37186;51.394;5.454;2023-05-10T05:46:40;16.00;79.00
26821;DHT22;37186;51.394;5.454;2023-05-10T05:49:40;16.00;79.40
26821;DHT22;37186;51.394;5.454;2023-05-10T05:52:41;16.00;78.90
26821;DHT22;37186;51.394;5.454;2023-05-10T05:55:54;16.00;79.10
26821;DHT22;37186;51.394;5.454;2023-05-10T05:58:54;16.00;79.30
26821;DHT22;37186;51.394;5.454;2023-05-10T06:01:55;16.00;79.80
26821;DHT22;37186;51.394;5.454;2023-05-10T06:04:55;16.00;79.40
26821;DHT22;37186;51.394;5.454;2023-05-10T06:07:56;16.00;79.20
26821;DHT22;37186;51.394;5.454;2023-05-10T06:10:56;16.00;79.20
26821;DHT22;37186;51.394;5.454;2023-05-10T06:13:58;16.00;79.10
26821;DHT22;37186;51.394;5.454;2023-05-10T06:16:58;16.00;79.00
26821;DHT22;37186;51.394;5.454;2023-05-10T06:20:00;16.00;79.10
26821;DHT22;37186;51.394;5.454;2023-05-10T06:23:00;16.00;79.10
26821;DHT22;37186;51.394;5.454;2023-05-10T06:26:01;16.00;79.00
26821;DHT22;37186;51.394;5.454;2023-05-10T06:29:01;16.00;79.40
26821;DHT22;37186;51.394;5.454;2023-05-10T06:32:02;16.00;79.20
26821;DHT22;37186;51.394;5.454;2023-05-10T06:35:03;16.00;79.20
26821;DHT22;37186;51.394;5.454;2023-05-10T06:38:04;16.00;79.10
26821;DHT22;37186;51.394;5.454;2023-05-10T06:41:05;16.00;79.10
26821;DHT22;37186;51.394;5.454;2023-05-10T06:44:05;16.10;79.30
26821;DHT22;37186;51.394;5.454;2023-05-10T06:47:06;16.00;79.40
26821;DHT22;37186;51.394;5.454;2023-05-10T06:50:08;16.10;79.30
26821;DHT22;37186;51.394;5.454;2023-05-10T06:53:08;16.10;79.40
26821;DHT22;37186;51.394;5.454;2023-05-10T06:56:09;16.10;79.30
26821;DHT22;37186;51.394;5.454;2023-05-10T06:59:09;16.10;79.50
26821;DHT22;37186;51.394;5.454;2023-05-10T07:02:10;16.10;79.60
26821;DHT22;37186;51.394;5.454;2023-05-10T07:05:11;16.20;79.80
26821;DHT22;37186;51.394;5.454;2023-05-10T07:08:12;16.20;80.80
26821;DHT22;37186;51.394;5.454;2023-05-10T07:11:13;16.20;79.60
26821;DHT22;37186;51.394;5.454;2023-05-10T07:14:14;16.20;80.10
26821;DHT22;37186;51.394;5.454;2023-05-10T07:17:14;16.20;79.90
26821;DHT22;37186;51.394;5.454;2023-05-10T07:20:15;16.20;80.00
26821;DHT22;37186;51.394;5.454;2023-05-10T07:23:16;16.20;79.70
26821;DHT22;37186;51.394;5.454;2023-05-10T07:26:18;16.20;80.40
26821;DHT22;37186;51.394;5.454;2023-05-10T07:29:18;16.20;79.80
26821;DHT22;37186;51.394;5.454;2023-05-10T07:32:19;16.20;80.40
26821;DHT22;37186;51.394;5.454;2023-05-10T07:35:19;16.20;80.00
26821;DHT22;37186;51.394;5.454;2023-05-10T07:38:20;16.20;79.90
26821;DHT22;37186;51.394;5.454;2023-05-10T07:41:20;16.20;79.80
26821;DHT22;37186;51.394;5.454;2023-05-10T07:44:21;16.20;79.80
26821;DHT22;37186;51.394;5.454;2023-05-10T07:47:22;16.20;80.10
26821;DHT22;37186;51.394;5.454;2023-05-10T07:50:22;16.20;80.00
26821;DHT22;37186;51.394;5.454;2023-05-10T07:53:23;16.30;79.90
26821;DHT22;37186;51.394;5.454;2023-05-10T07:56:30;16.30;79.80
26821;DHT22;37186;51.394;5.454;2023-05-10T07:59:32;16.30;79.80
26821;DHT22;37186;51.394;5.454;2023-05-10T08:02:35;16.30;79.90
26821;DHT22;37186;51.394;5.454;2023-05-10T08:05:36;16.30;79.90
26821;DHT22;37186;51.394;5.454;2023-05-10T08:08:37;16.30;79.90
26821;DHT22;37186;51.394;5.454;2023-05-10T08:11:38;16.30;80.00
26821;DHT22;37186;51.394;5.454;2023-05-10T08:14:38;16.30;80.00
26821;DHT22;37186;51.394;5.454;2023-05-10T08:17:39;16.30;80.10
26821;DHT22;37186;51.394;5.454;2023-05-10T08:20:39;16.30;79.80
26821;DHT22;37186;51.394;5.454;2023-05-10T08:23:40;16.30;79.60
26821;DHT22;37186;51.394;5.454;2023-05-10T08:26:41;16.30;79.80
26821;DHT22;37186;51.394;5.454;2023-05-10T08:29:41;16.30;79.50
26821;DHT22;37186;51.394;5.454;2023-05-10T08:32:42;16.20;79.90
26821;DHT22;37186;51.394;5.454;2023-05-10T08:35:42;16.20;79.70
26821;DHT22;37186;51.394;5.454;2023-05-10T08:38:43;16.20;79.70
26821;DHT22;37186;51.394;5.454;2023-05-10T08:41:44;16.20;79.60
26821;DHT22;37186;51.394;5.454;2023-05-10T08:44:48;16.20;79.80
26821;DHT22;37186;51.394;5.454;2023-05-10T08:47:49;16.30;79.90
26821;DHT22;37186;51.394;5.454;2023-05-10T08:50:53;16.30;79.90
26821;DHT22;37186;51.394;5.454;2023-05-10T08:53:55;16.30;79.80
26821;DHT22;37186;51.394;5.454;2023-05-10T08:56:56;16.20;79.80
26821;DHT22;37186;51.394;5.454;2023-05-10T08:59:56;16.30;79.80
26821;DHT22;37186;51.394;5.454;2023-05-10T09:02:58;16.30;79.70
26821;DHT22;37186;51.394;5.454;2023-05-10T09:05:59;16.30;79.90
26821;DHT22;37186;51.394;5.454;2023-05-10T09:08:59;16.30;79.80
26821;DHT22;37186;51.394;5.454;2023-05-10T09:12:00;16.30;79.80
26821;DHT22;37186;51.394;5.454;2023-05-10T09:15:02;16.40;80.00
26821;DHT22;37186;51.394;5.454;2023-05-10T09:18:03;16.40;79.90
26821;DHT22;37186;51.394;5.454;2023-05-10T09:21:04;16.40;79.80
26821;DHT22;37186;51.394;5.454;2023-05-10T09:24:06;16.40;79.80
26821;DHT22;37186;51.394;5.454;2023-05-10T09:27:06;16.50;80.00
26821;DHT22;37186;51.394;5.454;2023-05-10T09:30:08;16.50;80.00
26821;DHT22;37186;51.394;5.454;2023-05-10T09:33:08;16.50;80.00
26821;DHT22;37186;51.394;5.454;2023-05-10T09:36:09;16.60;80.80
26821;DHT22;37186;51.394;5.454;2023-05-10T09:39:10;16.60;80.00
26821;DHT22;37186;51.394;5.454;2023-05-10T09:42:10;16.70;80.00
26821;DHT22;37186;51.394;5.454;2023-05-10T09:45:11;16.70;79.90
26821;DHT22;37186;51.394;5.454;2023-05-10T09:48:11;16.70;79.90
26821;DHT22;37186;51.394;5.454;2023-05-10T09:51:19;16.70;79.80
26821;DHT22;37186;51.394;5.454;2023-05-10T09:54:20;16.70;79.80
26821;DHT22;37186;51.394;5.454;2023-05-10T09:57:22;16.80;80.00
26821;DHT22;37186;51.394;5.454;2023-05-10T10:00:22;16.80;80.00
26821;DHT22;37186;51.394;5.454;2023-05-10T10:03:23;16.80;80.10
26821;DHT22;37186;51.394;5.454;2023-05-10T10:06:25;16.90;80.20
26821;DHT22;37186;51.394;5.454;2023-05-10T10:09:26;16.90;80.30
26821;DHT22;37186;51.394;5.454;2023-05-10T10:12:26;17.00;80.30
26821;DHT22;37186;51.394;5.454;2023-05-10T10:15:28;17.00;80.30
26821;DHT22;37186;51.394;5.454;2023-05-10T10:18:30;17.10;80.30
26821;DHT22;37186;51.394;5.454;2023-05-10T10:21:31;17.10;80.30
26821;DHT22;37186;51.394;5.454;2023-05-10T10:24:33;17.20;80.40
26821;DHT22;37186;51.394;5.454;2023-05-10T10:30:53;17.30;80.40
26821;DHT22;37186;51.394;5.454;2023-05-10T10:34:05;17.30;80.40
26821;DHT22;37186;51.394;5.454;2023-05-10T10:37:07;17.40;80.50
26821;DHT22;37186;51.394;5.454;2023-05-10T10:43:28;17.50;80.50
26821;DHT22;37186;51.394;5.454;2023-05-10T10:46:28;17.60;80.40
26821;DHT22;37186;51.394;5.454;2023-05-10T10:49:33;17.60;80.30
26821;DHT22;37186;51.394;5.454;2023-05-10T10:52:47;17.60;80.10
26821;DHT22;37186;51.394;5.454;2023-05-10T10:55:49;17.70;80.10
26821;DHT22;37186;51.394;5.454;2023-05-10T10:58:50;17.70;80.00
26821;DHT22;37186;51.394;5.454;2023-05-10T11:01:52;17.70;79.80
26821;DHT22;37186;51.394;5.454;2023-05-10T11:04:52;17.70;79.80
26821;DHT22;37186;51.394;5.454;2023-05-10T11:07:57;17.70;79.60
26821;DHT22;37186;51.394;5.454;2023-05-10T11:14:06;17.80;79.60
26821;DHT22;37186;51.394;5.454;2023-05-10T11:17:27;17.70;79.50
26821;DHT22;37186;51.394;5.454;2023-05-10T11:20:38;17.80;79.50
26821;DHT22;37186;51.394;5.454;2023-05-10T11:26:39;17.80;79.40
26821;DHT22;37186;51.394;5.454;2023-05-10T11:29:40;17.80;79.40
26821;DHT22;37186;51.394;5.454;2023-05-10T11:32:43;17.80;79.50
26821;DHT22;37186;51.394;5.454;2023-05-10T11:35:44;17.80;79.50
26821;DHT22;37186;51.394;5.454;2023-05-10T11:38:46;17.80;79.50
26821;DHT22;37186;51.394;5.454;2023-05-10T11:41:48;17.90;79.60
26821;DHT22;37186;51.394;5.454;2023-05-10T11:44:49;17.80;79.60
26821;DHT22;37186;51.394;5.454;2023-05-10T11:47:49;17.90;79.60
26821;DHT22;37186;51.394;5.454;2023-05-10T11:50:50;17.90;79.60
26821;DHT22;37186;51.394;5.454;2023-05-10T11:53:54;17.90;79.60
26821;DHT22;37186;51.394;5.454;2023-05-10T11:56:55;18.00;79.70
26821;DHT22;37186;51.394;5.454;2023-05-10T11:59:58;18.00;79.70
26821;DHT22;37186;51.394;5.454;2023-05-10T12:03:00;18.00;79.80
26821;DHT22;37186;51.394;5.454;2023-05-10T12:06:02;18.00;79.70
26821;DHT22;37186;51.394;5.454;2023-05-10T12:09:06;18.10;79.80
26821;DHT22;37186;51.394;5.454;2023-05-10T12:12:08;18.20;80.00
26821;DHT22;37186;51.394;5.454;2023-05-10T12:15:21;18.20;80.00
26821;DHT22;37186;51.394;5.454;2023-05-10T12:18:23;18.30;80.30
26821;DHT22;37186;51.394;5.454;2023-05-10T12:21:26;18.30;80.00
26821;DHT22;37186;51.394;5.454;2023-05-10T12:24:27;18.40;80.40
26821;DHT22;37186;51.394;5.454;2023-05-10T12:27:31;18.40;80.30
26821;DHT22;37186;51.394;5.454;2023-05-10T12:30:34;18.50;80.00
26821;DHT22;37186;51.394;5.454;2023-05-10T12:33:42;18.60;80.00
26821;DHT22;37186;51.394;5.454;2023-05-10T12:36:43;18.60;79.90
26821;DHT22;37186;51.394;5.454;2023-05-10T12:39:44;18.70;79.90
26821;DHT22;37186;51.394;5.454;2023-05-10T12:42:46;18.70;79.80
26821;DHT22;37186;51.394;5.454;2023-05-10T12:45:47;18.70;79.60
26821;DHT22;37186;51.394;5.454;2023-05-10T12:48:48;18.80;79.50
26821;DHT22;37186;51.394;5.454;2023-05-10T12:51:55;18.80;79.00
26821;DHT22;37186;51.394;5.454;2023-05-10T12:54:55;18.80;78.80
26821;DHT22;37186;51.394;5.454;2023-05-10T12:57:56;18.80;78.80
26821;DHT22;37186;51.394;5.454;2023-05-10T13:00:58;18.80;78.50
26821;DHT22;37186;51.394;5.454;2023-05-10T13:03:58;18.70;78.30
26821;DHT22;37186;51.394;5.454;2023-05-10T13:07:01;18.70;78.30
26821;DHT22;37186;51.394;5.454;2023-05-10T13:10:02;18.70;78.20
26821;DHT22;37186;51.394;5.454;2023-05-10T13:13:03;18.70;78.30
26821;DHT22;37186;51.394;5.454;2023-05-10T13:16:03;18.70;78.30
26821;DHT22;37186;51.394;5.454;2023-05-10T13:19:04;18.70;78.30
26821;DHT22;37186;51.394;5.454;2023-05-10T13:22:04;18.70;78.30
26821;DHT22;37186;51.394;5.454;2023-05-10T13:25:05;18.70;78.30
26821;DHT22;37186;51.394;5.454;2023-05-10T13:28:06;18.60;78.20
26821;DHT22;37186;51.394;5.454;2023-05-10T13:31:07;18.60;78.20
26821;DHT22;37186;51.394;5.454;2023-05-10T13:34:07;18.60;78.10
26821;DHT22;37186;51.394;5.454;2023-05-10T13:37:08;18.50;78.10
26821;DHT22;37186;51.394;5.454;2023-05-10T13:40:09;18.50;78.10
26821;DHT22;37186;51.394;5.454;2023-05-10T13:43:10;18.50;78.10
26821;DHT22;37186;51.394;5.454;2023-05-10T13:46:11;18.50;78.00
26821;DHT22;37186;51.394;5.454;2023-05-10T13:49:11;18.40;78.10
26821;DHT22;37186;51.394;5.454;2023-05-10T13:52:12;18.30;77.70
26821;DHT22;37186;51.394;5.454;2023-05-10T13:55:13;18.30;77.70
26821;DHT22;37186;51.394;5.454;2023-05-10T13:58:13;18.20;77.80
26821;DHT22;37186;51.394;5.454;2023-05-10T14:01:14;18.10;77.60
26821;DHT22;37186;51.394;5.454;2023-05-10T14:04:14;18.10;77.80
26821;DHT22;37186;51.394;5.454;2023-05-10T14:07:15;18.00;77.80
26821;DHT22;37186;51.394;5.454;2023-05-10T14:10:16;18.00;78.00
26821;DHT22;37186;51.394;5.454;2023-05-10T14:13:16;17.90;78.10
26821;DHT22;37186;51.394;5.454;2023-05-10T14:16:17;17.90;78.00
26821;DHT22;37186;51.394;5.454;2023-05-10T14:19:17;17.90;78.00
26821;DHT22;37186;51.394;5.454;2023-05-10T14:22:18;17.80;78.20
26821;DHT22;37186;51.394;5.454;2023-05-10T14:25:18;17.80;78.20
26821;DHT22;37186;51.394;5.454;2023-05-10T14:28:19;17.80;78.20
26821;DHT22;37186;51.394;5.454;2023-05-10T14:31:20;17.80;78.40
26821;DHT22;37186;51.394;5.454;2023-05-10T14:34:21;17.70;78.30
26821;DHT22;37186;51.394;5.454;2023-05-10T14:37:21;17.70;78.50
26821;DHT22;37186;51.394;5.454;2023-05-10T14:40:22;17.70;78.50
26821;DHT22;37186;51.394;5.454;2023-05-10T14:43:23;17.70;78.40
26821;DHT22;37186;51.394;5.454;2023-05-10T14:46:23;17.70;78.40
26821;DHT22;37186;51.394;5.454;2023-05-10T14:49:24;17.70;78.50
26821;DHT22;37186;51.394;5.454;2023-05-10T14:52:26;17.70;78.50
26821;DHT22;37186;51.394;5.454;2023-05-10T14:55:27;17.70;78.50
26821;DHT22;37186;51.394;5.454;2023-05-10T14:58:27;17.70;78.50
26821;DHT22;37186;51.394;5.454;2023-05-10T15:01:28;17.70;78.70
26821;DHT22;37186;51.394;5.454;2023-05-10T15:04:28;17.70;78.50
26821;DHT22;37186;51.394;5.454;2023-05-10T15:07:29;17.70;78.50
26821;DHT22;37186;51.394;5.454;2023-05-10T15:10:30;17.70;78.50
26821;DHT22;37186;51.394;5.454;2023-05-10T15:13:30;17.70;78.50
26821;DHT22;37186;51.394;5.454;2023-05-10T15:16:31;17.60;78.50
26821;DHT22;37186;51.394;5.454;2023-05-10T15:19:31;17.60;78.50
26821;DHT22;37186;51.394;5.454;2023-05-10T15:22:33;17.60;78.50
26821;DHT22;37186;51.394;5.454;2023-05-10T15:25:34;17.60;78.60
26821;DHT22;37186;51.394;5.454;2023-05-10T15:28:35;17.60;78.60
26821;DHT22;37186;51.394;5.454;2023-05-10T15:31:35;17.60;78.60
26821;DHT22;37186;51.394;5.454;2023-05-10T15:34:36;17.60;78.90
26821;DHT22;37186;51.394;5.454;2023-05-10T15:37:37;17.60;78.60
26821;DHT22;37186;51.394;5.454;2023-05-10T15:40:38;17.60;78.60
26821;DHT22;37186;51.394;5.454;2023-05-10T15:43:38;17.60;78.60
26821;DHT22;37186;51.394;5.454;2023-05-10T15:46:39;17.50;78.70
26821;DHT22;37186;51.394;5.454;2023-05-10T15:49:39;17.50;78.70
26821;DHT22;37186;51.394;5.454;2023-05-10T15:52:40;17.50;78.80
26821;DHT22;37186;51.394;5.454;2023-05-10T15:55:41;17.50;78.70
26821;DHT22;37186;51.394;5.454;2023-05-10T15:58:42;17.50;78.80
26821;DHT22;37186;51.394;5.454;2023-05-10T16:01:43;17.50;78.60
26821;DHT22;37186;51.394;5.454;2023-05-10T16:04:44;17.50;79.10
26821;DHT22;37186;51.394;5.454;2023-05-10T16:07:44;17.50;79.40
26821;DHT22;37186;51.394;5.454;2023-05-10T16:10:46;17.50;78.80
26821;DHT22;37186;51.394;5.454;2023-05-10T16:13:46;17.40;78.90
26821;DHT22;37186;51.394;5.454;2023-05-10T16:16:47;17.40;78.70
26821;DHT22;37186;51.394;5.454;2023-05-10T16:19:48;17.40;78.80
26821;DHT22;37186;51.394;5.454;2023-05-10T16:22:48;17.40;78.80
26821;DHT22;37186;51.394;5.454;2023-05-10T16:25:49;17.40;78.80
26821;DHT22;37186;51.394;5.454;2023-05-10T16:28:49;17.40;78.80
26821;DHT22;37186;51.394;5.454;2023-05-10T16:31:50;17.40;78.80
26821;DHT22;37186;51.394;5.454;2023-05-10T16:34:50;17.40;78.80
26821;DHT22;37186;51.394;5.454;2023-05-10T16:37:52;17.40;78.90
26821;DHT22;37186;51.394;5.454;2023-05-10T16:40:53;17.30;78.80
26821;DHT22;37186;51.394;5.454;2023-05-10T16:43:54;17.30;78.90
26821;DHT22;37186;51.394;5.454;2023-05-10T16:46:56;17.30;79.00
26821;DHT22;37186;51.394;5.454;2023-05-10T16:49:57;17.30;79.00
26821;DHT22;37186;51.394;5.454;2023-05-10T16:52:57;17.30;79.00
26821;DHT22;37186;51.394;5.454;2023-05-10T16:55:58;17.30;79.30
26821;DHT22;37186;51.394;5.454;2023-05-10T16:58:58;17.30;79.10
26821;DHT22;37186;51.394;5.454;2023-05-10T17:01:59;17.30;79.10
26821;DHT22;37186;51.394;5.454;2023-05-10T17:05:00;17.30;79.40
26821;DHT22;37186;51.394;5.454;2023-05-10T17:08:00;17.20;79.30
26821;DHT22;37186;51.394;5.454;2023-05-10T17:11:01;17.30;79.30
26821;DHT22;37186;51.394;5.454;2023-05-10T17:14:03;17.20;79.20
26821;DHT22;37186;51.394;5.454;2023-05-10T17:17:03;17.20;79.10
26821;DHT22;37186;51.394;5.454;2023-05-10T17:20:04;17.20;79.10
26821;DHT22;37186;51.394;5.454;2023-05-10T17:23:05;17.20;79.10
26821;DHT22;37186;51.394;5.454;2023-05-10T17:26:06;17.20;79.10
26821;DHT22;37186;51.394;5.454;2023-05-10T17:29:07;17.20;79.00
26821;DHT22;37186;51.394;5.454;2023-05-10T17:32:07;17.20;79.10
26821;DHT22;37186;51.394;5.454;2023-05-10T17:35:08;17.20;79.10
26821;DHT22;37186;51.394;5.454;2023-05-10T17:38:09;17.20;80.00
26821;DHT22;37186;51.394;5.454;2023-05-10T17:41:10;17.10;79.10
26821;DHT22;37186;51.394;5.454;2023-05-10T17:44:10;17.10;79.10
26821;DHT22;37186;51.394;5.454;2023-05-10T17:47:12;17.10;79.00
26821;DHT22;37186;51.394;5.454;2023-05-10T17:50:13;17.10;79.10
26821;DHT22;37186;51.394;5.454;2023-05-10T17:53:13;17.10;79.00
26821;DHT22;37186;51.394;5.454;2023-05-10T17:56:14;17.10;79.10
26821;DHT22;37186;51.394;5.454;2023-05-10T17:59:14;17.10;79.20
26821;DHT22;37186;51.394;5.454;2023-05-10T18:02:15;17.00;79.30
26821;DHT22;37186;51.394;5.454;2023-05-10T18:05:15;17.00;79.00
26821;DHT22;37186;51.394;5.454;2023-05-10T18:08:16;17.00;79.00
26821;DHT22;37186;51.394;5.454;2023-05-10T18:11:21;17.00;79.10
26821;DHT22;37186;51.394;5.454;2023-05-10T18:14:22;17.00;79.30
26821;DHT22;37186;51.394;5.454;2023-05-10T18:17:22;16.90;79.00
26821;DHT22;37186;51.394;5.454;2023-05-10T18:20:23;16.90;79.10
26821;DHT22;37186;51.394;5.454;2023-05-10T18:23:24;16.90;79.10
26821;DHT22;37186;51.394;5.454;2023-05-10T18:26:24;16.90;79.40
26821;DHT22;37186;51.394;5.454;2023-05-10T18:29:25;16.90;79.30
26821;DHT22;37186;51.394;5.454;2023-05-10T18:32:26;16.90;79.40
26821;DHT22;37186;51.394;5.454;2023-05-10T18:35:27;16.90;79.20
26821;DHT22;37186;51.394;5.454;2023-05-10T18:38:27;16.90;79.10
26821;DHT22;37186;51.394;5.454;2023-05-10T18:41:28;16.80;79.00
26821;DHT22;37186;51.394;5.454;2023-05-10T18:44:28;16.80;79.10
26821;DHT22;37186;51.394;5.454;2023-05-10T18:47:29;16.80;79.10
26821;DHT22;37186;51.394;5.454;2023-05-10T18:50:30;16.80;79.20
26821;DHT22;37186;51.394;5.454;2023-05-10T18:53:30;16.80;79.10
26821;DHT22;37186;51.394;5.454;2023-05-10T18:56:31;16.80;79.20
26821;DHT22;37186;51.394;5.454;2023-05-10T18:59:32;16.70;79.20
26821;DHT22;37186;51.394;5.454;2023-05-10T19:02:33;16.70;79.10
26821;DHT22;37186;51.394;5.454;2023-05-10T19:05:33;16.70;79.20
26821;DHT22;37186;51.394;5.454;2023-05-10T19:08:34;16.70;79.10
26821;DHT22;37186;51.394;5.454;2023-05-10T19:11:34;16.70;79.10
26821;DHT22;37186;51.394;5.454;2023-05-10T19:14:35;16.70;79.00
26821;DHT22;37186;51.394;5.454;2023-05-10T19:17:36;16.70;79.10
26821;DHT22;37186;51.394;5.454;2023-05-10T19:20:37;16.70;79.10
26821;DHT22;37186;51.394;5.454;2023-05-10T19:23:37;16.70;79.50
26821;DHT22;37186;51.394;5.454;2023-05-10T19:26:42;16.70;79.20
26821;DHT22;37186;51.394;5.454;2023-05-10T19:29:42;16.70;79.20
26821;DHT22;37186;51.394;5.454;2023-05-10T19:32:43;16.60;79.10
26821;DHT22;37186;51.394;5.454;2023-05-10T19:35:44;16.70;79.10
26821;DHT22;37186;51.394;5.454;2023-05-10T19:38:45;16.60;79.10
26821;DHT22;37186;51.394;5.454;2023-05-10T19:41:45;16.60;79.90